Time;durP1;ratioP1;P1;durP2;ratioP2;P2;SDS_P1;SDS_P2;PMS_P1;PMS_P2;Temp;Humidity;BMP_temperature;BMP_pressure;BME280_temperature;BME280_humidity;BME280_pressure;Samples;Min_cycle;Max_cycle;Signal;HPM_P1;HPM_P2
2023/07/17 00:01:37;;;;;;;7.45;3.20;;;;;;;18.16;74.54;99867.78;12232348;19;20003;-77
2023/07/17 00:05:39;;;;;;;6.82;3.20;;;;;;;18.15;74.35;99865.31;12268511;19;20010;-76
2023/07/17 00:09:43;;;;;;;5.55;2.90;;;;;;;18.12;74.66;99860.34;12267436;19;20010;-77
2023/07/17 00:13:45;;;;;;;7.45;3.40;;;;;;;18.11;75.10;99865.06;12206481;19;19996;-78
2023/07/17 00:17:47;;;;;;;7.65;3.95;;;;;;;18.11;75.20;99870.63;12212559;19;20010;-79
2023/07/17 00:21:48;;;;;;;5.87;2.87;;;;;;;18.07;75.26;99872.38;12213725;19;20015;-79
2023/07/17 00:25:50;;;;;;;7.60;3.47;;;;;;;18.04;75.69;99867.41;12188435;19;20010;-78
2023/07/17 00:29:52;;;;;;;7.85;3.60;;;;;;;18.02;75.51;99875.22;12207496;19;20385;-77
2023/07/17 00:33:55;;;;;;;8.00;3.40;;;;;;;18.00;75.99;99874.72;12207697;19;20021;-78
2023/07/17 00:38:18;;;;;;;11.52;3.40;;;;;;;17.98;75.98;99871.38;12183712;19;20044;-79
2023/07/17 00:42:19;;;;;;;9.57;3.78;;;;;;;17.97;76.24;99872.53;12204077;19;20137;-78
2023/07/17 00:46:21;;;;;;;9.55;3.33;;;;;;;17.94;76.85;99875.91;12204483;19;20013;-78
2023/07/17 00:50:24;;;;;;;6.00;2.93;;;;;;;17.93;76.65;99877.00;12190083;19;20461;-78
2023/07/17 00:54:29;;;;;;;10.30;3.63;;;;;;;17.90;77.46;99866.44;12215855;19;20472;-78
2023/07/17 00:58:30;;;;;;;;;;;;;;;17.87;77.64;99872.63;12230810;19;20018;-76
2023/07/17 01:02:32;;;;;;;12.32;3.90;;;;;;;17.86;77.11;99869.00;12237417;19;19922;-78
2023/07/17 01:06:39;;;;;;;8.93;3.97;;;;;;;17.85;77.16;99877.69;12212792;19;20027;-77
2023/07/17 01:10:40;;;;;;;8.93;3.83;;;;;;;17.84;77.53;99870.44;12194898;19;20003;-77
2023/07/17 01:14:43;;;;;;;7.70;3.35;;;;;;;17.82;78.09;99873.53;12216626;19;20011;-78
2023/07/17 01:18:45;;;;;;;8.00;3.65;;;;;;;17.82;78.40;99879.09;12216997;19;20015;-77
2023/07/17 01:22:53;;;;;;;6.80;3.33;;;;;;;17.80;78.83;99880.53;12191950;19;20014;-78
2023/07/17 01:26:54;;;;;;;8.60;3.28;;;;;;;17.80;78.84;99891.66;12220204;19;20017;-77
2023/07/17 01:30:56;;;;;;;9.70;3.55;;;;;;;17.79;79.20;99879.69;12214932;19;20014;-78
2023/07/17 01:34:58;;;;;;;5.80;3.05;;;;;;;17.77;80.01;99891.13;12193204;19;20032;-77
2023/07/17 01:39:00;;;;;;;10.00;4.10;;;;;;;17.76;80.33;99889.44;12212279;19;20010;-78
2023/07/17 01:43:02;;;;;;;7.70;3.75;;;;;;;17.75;80.92;99886.94;12215010;19;20039;-77
2023/07/17 01:47:04;;;;;;;10.98;3.78;;;;;;;17.73;81.45;99881.69;12193848;19;20027;-78
2023/07/17 01:51:07;;;;;;;10.80;3.83;;;;;;;17.69;82.60;99888.94;12214668;19;20007;-77
2023/07/17 01:55:09;;;;;;;9.77;3.35;;;;;;;17.67;83.26;99890.41;12214576;19;20027;-77
2023/07/17 01:59:11;;;;;;;6.85;3.55;;;;;;;17.65;83.71;99885.09;12193212;19;20021;-79
2023/07/17 02:03:12;;;;;;;6.32;3.63;;;;;;;17.64;84.46;99886.25;12218151;19;20007;-78
2023/07/17 02:07:14;;;;;;;7.45;3.25;;;;;;;17.67;85.55;99896.78;12216420;19;20030;-77
2023/07/17 02:11:16;;;;;;;10.20;3.70;;;;;;;17.72;86.21;99891.13;12193638;19;20014;-77
2023/07/17 02:15:18;;;;;;;9.93;3.53;;;;;;;17.71;86.20;99888.66;12211372;19;20010;-78
2023/07/17 02:19:20;;;;;;;10.25;3.60;;;;;;;17.67;87.91;99890.41;12212790;19;20035;-78
2023/07/17 02:23:22;;;;;;;6.60;3.15;;;;;;;17.61;88.37;99889.63;12188639;19;20021;-77
2023/07/17 02:27:24;;;;;;;8.48;4.15;;;;;;;17.55;88.85;99893.59;12211426;19;20014;-78
2023/07/17 02:31:25;;;;;;;8.45;3.78;;;;;;;17.47;89.94;99900.59;12195435;19;20489;-78
2023/07/17 02:35:27;;;;;;;9.98;3.65;;;;;;;17.45;90.67;99907.59;12212239;19;19998;-78
2023/07/17 02:39:29;;;;;;;9.50;4.00;;;;;;;17.43;92.02;99905.13;12210295;19;20011;-77
2023/07/17 02:43:31;;;;;;;6.68;3.28;;;;;;;17.44;92.09;99906.75;12191498;19;20014;-78
2023/07/17 02:47:33;;;;;;;7.00;3.70;;;;;;;17.44;92.89;99915.13;12213386;19;20078;-77
2023/07/17 02:51:35;;;;;;;11.13;4.63;;;;;;;17.42;93.43;99925.72;12212459;19;20114;-77
2023/07/17 02:55:36;;;;;;;8.13;3.72;;;;;;;17.34;94.92;99918.03;12178373;19;20014;-78
2023/07/17 02:59:39;;;;;;;7.78;3.40;;;;;;;17.27;96.85;99923.91;12208970;19;20006;-77
2023/07/17 03:03:41;;;;;;;7.47;3.63;;;;;;;17.19;97.21;99923.69;12209980;19;20013;-77
2023/07/17 03:07:46;;;;;;;9.05;3.88;;;;;;;17.13;97.91;99930.41;12190183;19;20010;-77
2023/07/17 03:11:48;;;;;;;9.63;4.65;;;;;;;17.05;98.35;99926.31;12214074;19;20818;-78
2023/07/17 03:15:50;;;;;;;8.27;3.67;;;;;;;16.99;99.22;99933.06;12210825;19;20010;-78
2023/07/17 03:19:52;;;;;;;6.30;3.80;;;;;;;16.94;100.00;99931.13;12188539;19;20017;-78
2023/07/17 03:23:54;;;;;;;7.72;3.95;;;;;;;16.87;100.00;99933.41;12206116;19;20010;-78
2023/07/17 03:27:56;;;;;;;8.00;3.63;;;;;;;16.83;100.00;99935.09;12213493;19;20036;-77
2023/07/17 03:31:58;;;;;;;7.80;3.70;;;;;;;16.79;100.00;99931.22;12189232;19;20014;-77
2023/07/17 03:36:00;;;;;;;6.17;3.33;;;;;;;16.76;100.00;99934.59;12211267;19;20460;-78
2023/07/17 03:40:02;;;;;;;7.50;4.05;;;;;;;16.72;100.00;99939.06;12209890;19;20051;-78
2023/07/17 03:44:05;;;;;;;10.13;4.40;;;;;;;16.68;100.00;99949.06;12187474;19;20006;-77
2023/07/17 03:48:09;;;;;;;10.35;4.13;;;;;;;16.65;100.00;99950.47;12209387;19;20468;-78
2023/07/17 03:52:13;;;;;;;10.30;4.15;;;;;;;16.63;100.00;99955.50;12205452;19;20032;-77
2023/07/17 03:56:15;;;;;;;10.35;4.25;;;;;;;16.61;100.00;99955.78;12185660;19;20074;-78
2023/07/17 04:00:17;;;;;;;8.27;4.40;;;;;;;16.60;100.00;99967.22;12207084;19;20038;-78
2023/07/17 04:04:19;;;;;;;7.82;4.40;;;;;;;16.62;100.00;99962.19;12208219;19;20003;-77
2023/07/17 04:08:21;;;;;;;7.38;3.88;;;;;;;16.62;100.00;99951.03;12185272;19;20010;-78
2023/07/17 04:12:23;;;;;;;5.95;3.50;;;;;;;16.63;100.00;99952.72;12204958;19;20010;-78
2023/07/17 04:16:26;;;;;;;8.98;4.30;;;;;;;16.63;100.00;99953.56;12197509;19;20007;-76
2023/07/17 04:20:30;;;;;;;9.52;3.88;;;;;;;16.68;100.00;99965.75;12206130;19;20512;-77
2023/07/17 04:24:32;;;;;;;7.35;4.20;;;;;;;16.69;100.00;99961.88;12217946;19;20097;-78
2023/07/17 04:28:33;;;;;;;12.55;4.13;;;;;;;16.72;100.00;99970.47;12198476;19;20079;-78
2023/07/17 04:32:35;;;;;;;10.50;4.15;;;;;;;16.76;100.00;99971.59;12217788;19;20121;-77
2023/07/17 04:36:38;;;;;;;7.60;3.75;;;;;;;16.80;100.00;99977.41;12218076;19;20115;-77
2023/07/17 04:40:41;;;;;;;10.93;4.13;;;;;;;16.85;100.00;99983.78;12196683;19;20543;-78
2023/07/17 04:44:43;;;;;;;8.23;4.45;;;;;;;16.90;100.00;99990.47;12219740;19;20255;-78
2023/07/17 04:48:47;;;;;;;7.40;4.10;;;;;;;16.98;100.00;99989.81;12217570;19;20032;-77
2023/07/17 04:52:50;;;;;;;9.05;4.18;;;;;;;17.02;100.00;99988.16;12194739;19;20031;-78
2023/07/17 04:56:52;;;;;;;7.60;4.20;;;;;;;17.07;100.00;99994.53;12218884;19;20011;-78
2023/07/17 05:01:03;;;;;;;10.45;3.70;;;;;;;17.14;100.00;100001.72;12218645;19;20006;-77
2023/07/17 05:05:09;;;;;;;9.80;3.53;;;;;;;17.19;100.00;99999.72;12197278;19;20006;-78
2023/07/17 05:09:12;;;;;;;9.43;4.47;;;;;;;17.27;100.00;100001.06;12218762;19;20011;-78
2023/07/17 05:13:14;;;;;;;9.48;4.22;;;;;;;17.35;100.00;100019.13;12221601;19;20003;-77
2023/07/17 05:17:16;;;;;;;10.63;3.97;;;;;;;17.42;100.00;100009.28;12197535;19;20760;-78
2023/07/17 05:21:18;;;;;;;11.70;4.13;;;;;;;17.50;100.00;100016.19;12205449;19;20011;-78
2023/07/17 05:25:21;;;;;;;9.20;3.85;;;;;;;17.56;100.00;100003.06;12198776;19;20036;-77
2023/07/17 05:29:23;;;;;;;7.90;3.23;;;;;;;17.66;100.00;100012.16;12204679;19;20408;-77
2023/07/17 05:33:25;;;;;;;10.50;4.57;;;;;;;17.76;100.00;100011.25;12219534;19;20007;-77
2023/07/17 05:37:28;;;;;;;11.07;4.00;;;;;;;17.92;100.00;100012.78;12203813;19;20370;-78
2023/07/17 05:41:32;;;;;;;9.18;3.85;;;;;;;18.06;100.00;100015.72;12223603;19;20394;-78
2023/07/17 05:45:35;;;;;;;12.50;3.92;;;;;;;18.22;100.00;100016.38;12231928;19;20390;-79
2023/07/17 05:49:38;;;;;;;10.35;3.88;;;;;;;18.34;100.00;100019.59;12211297;19;20086;-78
2023/07/17 05:53:40;;;;;;;;;;;;;;;18.46;100.00;100021.97;12230236;19;20021;-78
2023/07/17 05:57:42;;;;;;;9.50;3.58;;;;;;;18.60;100.00;100033.25;12230439;19;19946;-78
2023/07/17 06:01:44;;;;;;;9.55;4.18;;;;;;;18.74;99.61;100042.59;12208301;19;20024;-78
2023/07/17 06:05:45;;;;;;;7.57;4.00;;;;;;;18.89;98.55;100036.81;12224715;19;20013;-78
2023/07/17 06:09:47;;;;;;;10.70;4.53;;;;;;;19.03;96.92;100034.09;12223912;19;20439;-78
2023/07/17 06:13:49;;;;;;;9.43;3.97;;;;;;;19.24;95.61;100036.59;12202376;19;20010;-78
2023/07/17 06:17:51;;;;;;;8.43;4.18;;;;;;;19.58;93.40;100039.97;12220620;19;20003;-79
2023/07/17 06:21:53;;;;;;;12.05;4.53;;;;;;;19.91;87.64;100023.22;12219059;19;20014;-78
2023/07/17 06:25:55;;;;;;;11.63;4.00;;;;;;;19.91;87.69;100017.63;12200466;19;20010;-78
2023/07/17 06:29:57;;;;;;;;;;;;;;;19.75;88.69;100025.47;12228430;19;20018;-79
2023/07/17 06:33:59;;;;;;;9.75;4.03;;;;;;;19.84;88.58;100033.16;12217268;19;19915;-80
2023/07/17 06:38:01;;;;;;;7.83;4.20;;;;;;;19.92;87.73;100033.28;12199148;19;20055;-78
2023/07/17 06:42:04;;;;;;;9.15;4.13;;;;;;;20.24;86.71;100039.97;12217757;19;20011;-79
2023/07/17 06:46:06;;;;;;;8.63;3.60;;;;;;;20.69;83.98;100051.44;12218003;19;20030;-79
2023/07/17 06:50:09;;;;;;;16.37;4.33;;;;;;;21.08;81.63;100058.44;12195824;19;20011;-78
2023/07/17 06:54:11;;;;;;;;;;;;;;;21.20;77.92;100072.75;12210927;19;20010;-78
2023/07/17 06:58:13;;;;;;;10.18;3.90;;;;;;;21.21;78.32;100068.81;12218917;19;19922;-78
2023/07/17 07:02:14;;;;;;;11.23;4.15;;;;;;;20.96;79.56;100064.59;12195932;19;20009;-78
2023/07/17 07:06:16;;;;;;;10.48;3.58;;;;;;;20.91;79.79;100073.09;12217266;19;20279;-78
2023/07/17 07:10:20;;;;;;;8.75;4.47;;;;;;;20.96;79.09;100070.19;12218162;19;20025;-77
2023/07/17 07:14:21;;;;;;;10.15;4.43;;;;;;;21.14;77.92;100071.19;12194998;19;20010;-79
2023/07/17 07:18:24;;;;;;;;;;;;;;;21.37;77.13;100081.34;12215519;19;20350;-78
2023/07/17 07:22:26;;;;;;;7.87;4.13;;;;;;;21.54;75.49;100079.88;12192222;19;19911;-78
2023/07/17 07:26:31;;;;;;;11.00;4.47;;;;;;;21.82;73.69;100069.34;12213955;19;20104;-78
2023/07/17 07:30:34;;;;;;;9.73;4.38;;;;;;;22.11;70.27;100068.91;12213799;19;20011;-78
2023/07/17 07:34:37;;;;;;;11.52;5.18;;;;;;;22.52;68.17;100076.25;12189175;19;20087;-78
2023/07/17 07:38:39;;;;;;;10.63;4.30;;;;;;;22.71;63.91;100068.38;12214710;19;20017;-77
2023/07/17 07:42:44;;;;;;;10.83;4.50;;;;;;;22.81;62.72;100064.44;12212576;19;20027;-78
2023/07/17 07:46:46;;;;;;;10.98;4.22;;;;;;;22.84;60.95;100065.78;12194537;19;20424;-78
2023/07/17 07:50:48;;;;;;;8.20;3.85;;;;;;;23.03;61.18;100077.63;12210736;19;20006;-78
2023/07/17 07:54:50;;;;;;;8.90;4.70;;;;;;;23.26;59.33;100077.47;12243538;19;20003;-78
2023/07/17 07:59:00;;;;;;;8.35;3.88;;;;;;;23.47;59.21;100084.16;12229974;19;20018;-77
2023/07/17 08:03:04;;;;;;;11.55;5.32;;;;;;;23.63;57.81;100081.66;12249545;19;20039;-77
2023/07/17 08:07:06;;;;;;;10.18;4.43;;;;;;;24.16;56.85;100077.66;12222368;19;20015;-79
2023/07/17 08:11:07;;;;;;;8.93;3.67;;;;;;;24.90;54.64;100076.44;12196416;19;20018;-79
2023/07/17 08:15:10;;;;;;;9.53;4.10;;;;;;;25.57;52.13;100077.50;12220391;19;20007;-80
2023/07/17 08:19:13;;;;;;;10.55;4.32;;;;;;;25.64;51.14;100083.44;12216750;19;20357;-79
2023/07/17 08:23:24;;;;;;;10.48;4.20;;;;;;;25.84;50.31;100078.94;12201948;19;20022;-76
2023/07/17 08:27:26;;;;;;;9.93;3.42;;;;;;;25.91;48.06;100075.59;12242507;19;20017;-78
2023/07/17 08:31:29;;;;;;;10.35;3.35;;;;;;;25.60;48.01;100084.44;12193092;19;20027;-80
2023/07/17 08:35:31;;;;;;;7.68;3.83;;;;;;;25.33;49.16;100071.72;12209523;19;20350;-80
2023/07/17 08:39:33;;;;;;;8.18;3.42;;;;;;;24.97;49.74;100085.16;12211482;19;20011;-78
2023/07/17 08:43:37;;;;;;;11.98;3.60;;;;;;;25.18;48.76;100090.06;12192675;19;20469;-77
2023/07/17 08:47:39;;;;;;;6.97;3.42;;;;;;;25.49;49.50;100083.19;12211622;19;20017;-80
2023/07/17 08:51:40;;;;;;;12.50;3.35;;;;;;;25.97;46.93;100071.38;12211473;19;20014;-76
2023/07/17 08:55:43;;;;;;;9.05;3.10;;;;;;;26.45;44.96;100069.84;12185871;19;20011;-78
2023/07/17 08:59:45;;;;;;;9.68;3.00;;;;;;;26.36;44.54;100074.78;12212168;19;20016;-79
2023/07/17 09:03:51;;;;;;;9.93;3.80;;;;;;;26.28;45.33;100065.22;12214126;19;20017;-79
2023/07/17 09:07:53;;;;;;;6.68;2.72;;;;;;;26.50;43.31;100068.81;12202620;19;20364;-79
2023/07/17 09:12:11;;;;;;;6.00;2.03;;;;;;;26.53;40.48;100063.31;12224949;19;20006;-79
2023/07/17 09:16:24;;;;;;;7.63;2.45;;;;;;;26.97;39.99;100065.56;12225034;19;20015;-80
2023/07/17 09:20:26;;;;;;;;;;;;;;;26.88;40.95;100062.84;12201229;19;20006;-80
2023/07/17 09:24:28;;;;;;;6.60;2.53;;;;;;;26.96;39.32;100059.09;12224410;19;19914;-80
2023/07/17 09:28:35;;;;;;;4.93;2.67;;;;;;;26.69;37.26;100052.13;12203056;19;20022;-80
2023/07/17 09:32:37;;;;;;;4.82;2.45;;;;;;;26.15;37.84;100055.09;12224209;19;20488;-81
2023/07/17 09:36:39;;;;;;;8.05;2.78;;;;;;;26.21;36.70;100048.03;12218917;19;20014;-80
2023/07/17 09:40:41;;;;;;;7.57;2.80;;;;;;;26.29;35.59;100046.28;12208953;19;20488;-80
2023/07/17 09:44:43;;;;;;;8.88;2.70;;;;;;;26.59;33.30;100042.13;12225273;19;20717;-78
2023/07/17 09:48:45;;;;;;;6.22;2.80;;;;;;;27.31;34.17;100061.44;12226654;19;20010;-79
2023/07/17 09:52:48;;;;;;;;;;;;;;;27.47;32.55;100056.66;12206231;19;20023;-79
2023/07/17 09:56:53;;;;;;;7.72;3.72;;;;;;;27.52;32.34;100060.44;12222462;19;19935;-81
2023/07/17 10:00:55;;;;;;;6.65;3.42;;;;;;;27.43;32.04;100061.41;12222755;19;20015;-79
2023/07/17 10:05:00;;;;;;;8.95;3.05;;;;;;;27.17;32.53;100060.97;12201332;19;20002;-79
2023/07/17 10:09:05;;;;;;;9.05;3.38;;;;;;;27.39;32.31;100056.81;12216773;19;20018;-79
2023/07/17 10:13:08;;;;;;;7.55;3.05;;;;;;;27.65;30.67;100050.72;12217058;19;20007;-81
2023/07/17 10:17:30;;;;;;;7.03;3.20;;;;;;;27.83;31.10;100042.78;12195615;19;19999;-80
2023/07/17 10:21:32;;;;;;;9.15;3.50;;;;;;;27.61;31.34;100050.63;12221748;19;20484;-81
2023/07/17 10:25:33;;;;;;;7.80;3.13;;;;;;;27.52;31.83;100044.28;12199003;19;20042;-81
2023/07/17 10:29:42;;;;;;;8.15;2.97;;;;;;;27.71;31.15;100035.13;12220809;19;20003;-78
2023/07/17 10:33:48;;;;;;;5.38;2.95;;;;;;;27.85;31.11;100040.41;12220282;19;20017;-80
2023/07/17 10:38:08;;;;;;;6.38;2.75;;;;;;;28.28;31.11;100025.41;12197698;19;20342;-82
2023/07/17 10:42:09;;;;;;;5.43;2.90;;;;;;;28.36;29.32;100038.59;12217105;19;20493;-80
2023/07/17 10:46:12;;;;;;;7.30;2.97;;;;;;;28.09;29.18;100043.13;12223940;19;20122;-81
2023/07/17 10:50:17;;;;;;;6.57;2.67;;;;;;;28.25;29.97;100051.63;12199868;19;20014;-82
2023/07/17 10:54:19;;;;;;;7.40;2.60;;;;;;;28.30;28.93;100031.53;12216777;19;20034;-82
2023/07/17 10:58:21;;;;;;;8.57;3.00;;;;;;;28.73;27.91;100026.16;12223133;19;20022;-82
2023/07/17 11:02:26;;;;;;;;;;;;;;;28.89;27.28;100035.50;12195064;19;20402;-81
2023/07/17 11:06:29;;;;;;;7.85;2.17;;;;;;;29.05;27.36;100039.16;12218345;19;19915;-82
2023/07/17 11:10:30;;;;;;;7.13;2.50;;;;;;;29.27;26.66;100019.75;12199303;19;20367;-82
2023/07/17 11:14:32;;;;;;;4.68;2.55;;;;;;;29.31;26.11;100032.03;12219989;19;20377;-81
2023/07/17 11:18:51;;;;;;;3.60;1.85;;;;;;;29.44;25.97;100029.88;12220816;19;20472;-81
2023/07/17 11:22:53;;;;;;;4.88;2.10;;;;;;;29.53;26.08;100016.28;12194347;19;20020;-81
2023/07/17 11:26:58;;;;;;;5.47;2.10;;;;;;;29.60;26.28;100016.47;12223942;19;20017;-81
2023/07/17 11:31:00;;;;;;;4.63;2.13;;;;;;;30.04;25.79;100018.97;12223936;19;20014;-80
2023/07/17 11:35:01;;;;;;;5.68;2.30;;;;;;;30.20;25.29;100014.03;12190969;19;20027;-81
2023/07/17 11:39:20;;;;;;;7.40;2.00;;;;;;;30.40;24.95;100008.28;12212607;19;20017;-82
2023/07/17 11:43:24;;;;;;;5.07;2.50;;;;;;;30.62;25.00;100020.88;12218502;19;20006;-82
2023/07/17 11:47:26;;;;;;;6.63;2.50;;;;;;;30.90;25.74;100014.00;12196912;19;20378;-79
2023/07/17 11:51:27;;;;;;;;;;;;;;;30.51;25.90;100002.78;12216722;19;20014;-79
2023/07/17 11:55:36;;;;;;;4.17;2.60;;;;;;;31.14;25.26;100019.25;12190464;19;19935;-83
2023/07/17 11:59:45;;;;;;;5.65;2.72;;;;;;;30.91;25.51;100007.97;12212997;19;20618;-79
2023/07/17 12:03:46;;;;;;;7.07;2.50;;;;;;;30.68;26.27;100007.97;12208583;19;20014;-81
2023/07/17 12:07:49;;;;;;;4.75;2.38;;;;;;;29.88;26.72;99990.66;12190331;19;20011;-80
2023/07/17 12:11:50;;;;;;;4.78;2.30;;;;;;;29.92;26.40;100002.91;12209169;19;20805;-81
2023/07/17 12:15:53;;;;;;;7.43;3.10;;;;;;;29.64;27.48;100002.34;12222442;19;20010;-78
2023/07/17 12:19:54;;;;;;;;;;;;;;;29.49;26.68;99987.81;12234288;19;20402;-82
2023/07/17 12:23:56;;;;;;;5.20;1.90;;;;;;;30.12;27.05;99992.34;12222283;19;19915;-82
2023/07/17 12:28:00;;;;;;;6.25;2.45;;;;;;;30.82;26.29;99988.31;12216414;19;20013;-81
2023/07/17 12:32:02;;;;;;;5.43;2.15;;;;;;;30.93;26.69;99991.31;12195081;19;20006;-81
2023/07/17 12:36:05;;;;;;;5.15;2.85;;;;;;;31.60;25.96;99996.34;12212510;19;20055;-79
2023/07/17 12:40:07;;;;;;;5.97;2.47;;;;;;;32.57;24.63;99988.81;12210821;19;20010;-82
2023/07/17 12:44:10;;;;;;;5.80;2.90;;;;;;;32.57;23.83;99983.09;12204124;19;20006;-81
2023/07/17 12:48:12;;;;;;;4.82;2.47;;;;;;;32.41;24.45;99986.22;12226460;19;20014;-82
2023/07/17 12:52:14;;;;;;;5.45;2.67;;;;;;;32.84;23.76;99987.41;12225224;19;20057;-83
2023/07/17 12:56:16;;;;;;;5.18;2.30;;;;;;;31.92;24.47;99981.69;12204704;19;20010;-81
2023/07/17 13:00:22;;;;;;;5.75;2.33;;;;;;;32.24;23.89;99979.13;12226329;19;20472;-83
2023/07/17 13:04:24;;;;;;;6.07;2.63;;;;;;;32.15;24.33;99973.75;12223720;19;20002;-85
2023/07/17 13:08:26;;;;;;;7.15;3.13;;;;;;;33.31;23.18;99987.72;12204790;19;20006;-79
2023/07/17 13:12:28;;;;;;;8.57;2.80;;;;;;;32.40;23.53;99976.03;12223562;19;20015;-82
2023/07/17 13:16:47;;;;;;;5.32;2.83;;;;;;;31.45;24.90;99968.88;12204665;19;20061;-83
2023/07/17 13:20:49;;;;;;;5.63;2.53;;;;;;;30.79;25.42;99971.19;12227362;19;20536;-81
2023/07/17 13:24:50;;;;;;;5.38;2.40;;;;;;;32.35;24.63;99968.66;12225626;19;20015;-81
2023/07/17 13:28:52;;;;;;;5.18;2.20;;;;;;;34.57;22.07;99960.34;12207682;19;20018;-81
2023/07/17 13:32:54;;;;;;;3.60;2.15;;;;;;;34.87;21.39;99969.28;12224793;19;20097;-81
2023/07/17 13:36:56;;;;;;;5.45;2.28;;;;;;;34.19;21.60;99962.75;12227195;19;20555;-81
2023/07/17 13:40:58;;;;;;;7.47;2.33;;;;;;;35.42;20.83;99964.25;12198079;19;20088;-82
2023/07/17 13:45:03;;;;;;;8.25;2.80;;;;;;;34.69;20.59;99982.81;12223813;19;20094;-81
2023/07/17 13:49:05;;;;;;;6.68;2.00;;;;;;;34.53;21.21;99982.34;12225459;19;20011;-81
2023/07/17 13:53:07;;;;;;;7.57;2.13;;;;;;;33.72;21.35;99988.31;12198079;19;20468;-82
2023/07/17 13:57:09;;;;;;;4.03;2.00;;;;;;;32.65;22.63;99971.38;12224455;19;20015;-83
2023/07/17 14:01:11;;;;;;;5.68;2.15;;;;;;;31.82;23.14;99976.63;12223734;19;20017;-83
2023/07/17 14:05:13;;;;;;;5.95;2.08;;;;;;;31.16;24.00;99977.00;12203476;19;20010;-82
2023/07/17 14:09:17;;;;;;;5.72;2.00;;;;;;;30.47;24.60;99974.31;12225307;19;20032;-81
2023/07/17 14:13:18;;;;;;;;;;;;;;;29.39;25.03;99979.91;12218892;19;20018;-82
2023/07/17 14:17:20;;;;;;;5.28;2.10;;;;;;;28.80;26.17;99970.47;12201210;19;19922;-81
2023/07/17 14:21:22;;;;;;;4.70;2.08;;;;;;;31.07;24.82;99980.13;12219042;19;20006;-81
2023/07/17 14:25:24;;;;;;;;;;;;;;;30.69;24.80;99975.47;12222693;19;20014;-83
2023/07/17 14:29:26;;;;;;;4.50;2.35;;;;;;;32.79;23.23;99967.81;12221293;19;19939;-83
2023/07/17 14:33:29;;;;;;;;;;;;;;;34.54;21.75;99969.72;12222572;19;20016;-81
2023/07/17 14:37:31;;;;;;;4.88;2.03;;;;;;;34.88;21.53;99959.47;12196963;19;19922;-81
2023/07/17 14:41:33;;;;;;;4.10;2.20;;;;;;;33.50;22.33;99949.47;12216688;19;20355;-84
2023/07/17 14:45:35;;;;;;;3.97;2.38;;;;;;;31.90;23.00;99959.25;12221216;19;20006;-81
2023/07/17 14:49:37;;;;;;;4.40;2.10;;;;;;;32.33;22.78;99953.94;12201304;19;20018;-84
2023/07/17 14:53:39;;;;;;;3.83;1.90;;;;;;;32.10;22.82;99968.44;12219664;19;20011;-82
2023/07/17 14:57:41;;;;;;;3.22;1.63;;;;;;;32.25;22.95;99938.03;12223881;19;20010;-80
2023/07/17 15:01:43;;;;;;;3.03;1.70;;;;;;;31.59;23.05;99966.22;12199338;19;20023;-83
2023/07/17 15:05:45;;;;;;;6.70;2.10;;;;;;;30.61;23.60;99956.66;12215502;19;20010;-82
2023/07/17 15:09:47;;;;;;;;;;;;;;;30.24;24.50;99939.38;12216970;19;20097;-83
2023/07/17 15:13:49;;;;;;;4.35;1.60;;;;;;;31.19;23.97;99941.25;12182161;19;20237;-81
2023/07/17 15:17:51;;;;;;;7.05;2.30;;;;;;;33.15;21.62;99944.41;12212695;19;20028;-82
2023/07/17 15:21:53;;;;;;;8.40;1.83;;;;;;;34.35;20.31;99939.44;12218084;19;20039;-81
2023/07/17 15:25:55;;;;;;;6.10;2.50;;;;;;;33.32;21.57;99941.63;12197207;19;20007;-81
2023/07/17 15:29:56;;;;;;;6.55;1.80;;;;;;;31.77;22.05;99967.25;12221231;19;20547;-80
2023/07/17 15:33:58;;;;;;;4.47;1.80;;;;;;;30.85;23.19;99961.94;12214428;19;20027;-81
2023/07/17 15:38:03;;;;;;;3.53;1.50;;;;;;;30.28;24.00;99952.47;12195010;19;20014;-83
2023/07/17 15:42:05;;;;;;;4.10;1.77;;;;;;;30.18;23.96;99950.22;12220267;19;20022;-79
2023/07/17 15:46:08;;;;;;;3.63;1.67;;;;;;;30.45;23.80;99944.59;12227130;19;20014;-82
2023/07/17 15:50:10;;;;;;;;;;;;;;;30.35;24.20;99948.91;12224835;19;20054;-81
2023/07/17 15:54:12;;;;;;;5.07;1.60;;;;;;;29.86;24.08;99966.66;12248922;19;19907;-80
2023/07/17 15:58:13;;;;;;;;;;;;;;;29.41;24.45;99971.00;12252272;19;20011;-81
2023/07/17 16:02:15;;;;;;;3.92;1.65;;;;;;;28.84;24.99;99962.84;12212389;19;19915;-83
2023/07/17 16:06:17;;;;;;;3.03;1.70;;;;;;;28.53;25.68;99974.25;12227911;19;20565;-81
2023/07/17 16:10:19;;;;;;;3.97;1.63;;;;;;;28.18;26.79;99970.09;12223483;19;20002;-81
2023/07/17 16:14:22;;;;;;;4.22;1.67;;;;;;;28.19;26.54;99970.94;12213008;19;20610;-78
2023/07/17 16:18:23;;;;;;;4.53;1.77;;;;;;;28.14;26.50;99974.88;12244821;19;20007;-80
2023/07/17 16:22:25;;;;;;;5.13;2.03;;;;;;;27.80;26.60;99975.53;12218816;19;20031;-81
2023/07/17 16:26:30;;;;;;;5.15;1.80;;;;;;;27.61;26.41;99968.53;12228402;19;20010;-80
2023/07/17 16:30:32;;;;;;;6.80;2.05;;;;;;;27.46;26.98;99972.97;12225997;19;20643;-79
2023/07/17 16:34:34;;;;;;;3.35;1.52;;;;;;;27.52;26.78;99970.69;12207136;19;20725;-80
2023/07/17 16:38:36;;;;;;;5.05;1.70;;;;;;;27.66;26.83;99958.94;12230547;19;20023;-81
2023/07/17 16:42:40;;;;;;;4.43;1.73;;;;;;;27.48;26.72;99972.59;12223721;19;20426;-81
2023/07/17 16:46:41;;;;;;;5.45;1.55;;;;;;;27.26;27.04;99974.78;12205939;19;20021;-81
2023/07/17 16:50:44;;;;;;;3.17;1.30;;;;;;;27.13;27.46;99975.13;12227312;19;20010;-80
2023/07/17 16:54:46;;;;;;;4.00;1.80;;;;;;;27.02;27.47;99977.66;12227738;19;20461;-80
2023/07/17 16:58:48;;;;;;;4.55;1.65;;;;;;;27.00;27.58;99974.34;12206236;19;20018;-81
2023/07/17 17:02:50;;;;;;;3.17;1.50;;;;;;;27.03;28.25;99977.28;12225556;19;20027;-79
2023/07/17 17:06:52;;;;;;;2.65;1.38;;;;;;;26.88;28.00;99994.16;12228459;19;20105;-80
2023/07/17 17:10:54;;;;;;;5.00;1.60;;;;;;;26.71;28.61;99995.22;12205880;19;20402;-78
2023/07/17 17:14:56;;;;;;;6.45;1.90;;;;;;;26.66;28.43;99996.31;12226867;19;20014;-83
2023/07/17 17:18:58;;;;;;;5.90;1.48;;;;;;;26.55;28.56;99995.13;12225670;19;20006;-81
2023/07/17 17:22:59;;;;;;;5.25;1.65;;;;;;;26.55;28.62;100000.78;12203655;19;20024;-81
2023/07/17 17:27:01;;;;;;;3.55;1.42;;;;;;;26.54;28.91;100004.78;12222279;19;20006;-80
2023/07/17 17:31:03;;;;;;;4.13;1.50;;;;;;;26.57;29.49;100006.91;12225464;19;20007;-81
2023/07/17 17:35:06;;;;;;;4.45;1.90;;;;;;;26.46;29.96;100009.34;12205475;19;20074;-81
2023/07/17 17:39:09;;;;;;;3.40;1.40;;;;;;;26.18;29.63;100017.66;12224117;19;20015;-82
2023/07/17 17:43:11;;;;;;;21.00;2.70;;;;;;;26.05;30.35;100015.97;12222451;19;20026;-79
2023/07/17 17:47:13;;;;;;;3.63;1.30;;;;;;;26.18;30.04;100009.19;12201240;19;20010;-80
2023/07/17 17:51:17;;;;;;;5.88;1.50;;;;;;;26.18;29.74;100014.03;12224649;19;20036;-81
2023/07/17 17:55:20;;;;;;;6.63;2.00;;;;;;;26.07;30.59;100017.28;12225169;19;20047;-80
2023/07/17 17:59:21;;;;;;;5.22;1.95;;;;;;;26.02;30.61;100016.66;12199155;19;20520;-80
2023/07/17 18:03:24;;;;;;;7.20;2.17;;;;;;;25.96;30.76;100010.41;12217606;19;20483;-82
2023/07/17 18:07:26;;;;;;;4.18;1.45;;;;;;;25.79;31.24;100014.22;12199345;19;20307;-80
2023/07/17 18:11:28;;;;;;;4.93;1.47;;;;;;;25.68;31.41;100024.28;12221030;19;20010;-83
2023/07/17 18:15:29;;;;;;;6.20;1.40;;;;;;;25.52;32.05;100023.25;12225098;19;20263;-82
2023/07/17 18:19:38;;;;;;;7.45;1.52;;;;;;;25.41;32.11;100026.53;12201858;19;20015;-82
2023/07/17 18:23:41;;;;;;;5.03;2.22;;;;;;;25.22;32.44;100034.63;12218445;19;20024;-82
2023/07/17 18:27:43;;;;;;;5.45;1.60;;;;;;;25.23;32.83;100037.09;12223113;19;20472;-79
2023/07/17 18:31:45;;;;;;;6.97;1.98;;;;;;;25.18;33.15;100039.31;12202350;19;20019;-81
2023/07/17 18:35:47;;;;;;;5.47;1.90;;;;;;;24.99;33.11;100049.00;12224649;19;20003;-83
2023/07/17 18:39:49;;;;;;;5.85;1.48;;;;;;;24.82;33.37;100051.09;12221425;19;20023;-82
2023/07/17 18:43:53;;;;;;;5.13;2.03;;;;;;;24.65;33.53;100052.00;12196451;19;20007;-81